Algodones, New Mexico
Current Conditions -  °F | °C
As of 9:52 AM on Wednesday 26 Nov 2014 (Local Time) from KABQ Reporting Station
Few Clouds Few Clouds  
Wind Chill: 44°   Ceiling: Unl
Heat Index: 47°   Visibility: 10mi
Dew Point: 12°   Wind: 6mph
Humidity: 24%   Direction: 220°SW
Pressure: 30.4"   Gusts: NA
Location:  35.38°N, 106.48°W
Report Text: KABQ 261652Z 22005KT 10SM FEW250 08/M11 A3040 RMK AO2 SLP280 T00831111
Loading
Personal Weather Stations






























Interactive Weather Map New forecast layout! Learn more

10-Day Weather Forecast

Advertisements
Track Severe Weather on mobile